createdAt,value
2023-06-28T00:00:34.740Z,51.67
2023-06-28T00:01:34.712Z,50.11
2023-06-28T00:02:34.718Z,48.54
2023-06-28T00:03:34.763Z,44.39
2023-06-28T00:04:34.835Z,42.16
2023-06-28T00:05:34.779Z,48.74
2023-06-28T00:06:34.796Z,46.30
2023-06-28T00:07:34.853Z,48.78
2023-06-28T00:08:34.833Z,46.17
2023-06-28T00:09:34.860Z,48.65
2023-06-28T00:10:34.927Z,50.91
2023-06-28T00:11:34.907Z,46.02
2023-06-28T00:12:34.969Z,54.80
2023-06-28T00:13:34.978Z,60.95
2023-06-28T00:14:35.000Z,59.18
2023-06-28T00:15:35.019Z,64.24
2023-06-28T00:16:35.038Z,70.23
2023-06-28T00:17:35.147Z,66.27
2023-06-28T00:18:35.068Z,69.36
2023-06-28T00:19:35.137Z,75.77
2023-06-28T00:20:35.115Z,75.48
2023-06-28T00:21:35.146Z,75.99
2023-06-28T00:22:35.213Z,75.12
2023-06-28T00:23:35.218Z,79.72
2023-06-28T00:24:35.230Z,79.70
2023-06-28T00:25:35.385Z,76.62
2023-06-28T00:26:35.266Z,75.99
2023-06-28T00:27:35.313Z,78.99
2023-06-28T00:28:35.414Z,79.33
2023-06-28T00:29:35.394Z,84.17
2023-06-28T00:30:35.458Z,82.02
2023-06-28T00:31:35.543Z,81.17
2023-06-28T00:32:35.593Z,82.09
2023-06-28T00:33:35.508Z,79.59
2023-06-28T00:34:35.483Z,82.02
2023-06-28T00:35:35.551Z,76.83
2023-06-28T00:36:35.619Z,78.17
2023-06-28T00:37:35.557Z,74.46
2023-06-28T00:38:35.598Z,79.63
2023-06-28T00:39:35.618Z,78.79
2023-06-28T00:40:35.631Z,77.66
2023-06-28T00:41:35.758Z,79.07
2023-06-28T00:42:35.734Z,74.82
2023-06-28T00:43:35.787Z,77.75
2023-06-28T00:44:35.784Z,73.39
2023-06-28T00:45:35.787Z,73.97
2023-06-28T00:46:35.811Z,71.23
2023-06-28T00:47:35.888Z,70.43
2023-06-28T00:48:35.908Z,72.74
2023-06-28T00:49:35.952Z,73.46
2023-06-28T00:50:35.915Z,65.45
2023-06-28T00:51:35.955Z,65.03
2023-06-28T00:52:35.994Z,65.61
2023-06-28T00:53:36.009Z,63.17
2023-06-28T00:54:36.068Z,64.43
2023-06-28T00:55:36.087Z,67.18
2023-06-28T00:56:36.133Z,72.04
2023-06-28T00:57:36.161Z,68.12
2023-06-28T00:58:36.161Z,64.15
2023-06-28T00:59:36.183Z,65.54
2023-06-28T01:00:36.210Z,65.32
2023-06-28T01:01:36.282Z,70.89
2023-06-28T01:02:36.371Z,65.33
2023-06-28T01:03:36.506Z,64.60
2023-06-28T01:04:36.344Z,66.76
2023-06-28T01:05:36.348Z,74.31
2023-06-28T01:06:36.459Z,77.78
2023-06-28T01:07:36.501Z,73.59
2023-06-28T01:08:36.468Z,71.18
2023-06-28T01:09:36.485Z,73.16
2023-06-28T01:10:36.496Z,72.11
2023-06-28T01:11:36.525Z,73.81
2023-06-28T01:12:36.539Z,73.98
2023-06-28T01:13:36.594Z,78.22
2023-06-28T01:14:36.601Z,80.81
2023-06-28T01:15:36.645Z,85.27
2023-06-28T01:16:36.678Z,92.30
2023-06-28T01:17:36.771Z,86.64
2023-06-28T01:18:36.745Z,84.49
2023-06-28T01:19:36.757Z,86.77
2023-06-28T01:20:36.794Z,85.80
2023-06-28T01:21:36.866Z,89.89
2023-06-28T01:22:36.869Z,85.07
2023-06-28T01:23:36.955Z,80.40
2023-06-28T01:24:36.920Z,83.51
2023-06-28T01:25:36.956Z,81.74
2023-06-28T01:26:37.020Z,78.81
2023-06-28T01:27:37.016Z,87.19
2023-06-28T01:28:37.068Z,85.80
2023-06-28T01:29:37.126Z,85.52
2023-06-28T01:30:37.141Z,80.93
2023-06-28T01:31:37.182Z,81.64
2023-06-28T01:32:37.316Z,79.57
2023-06-28T01:34:37.265Z,81.25
2023-06-28T01:35:37.295Z,83.65
2023-06-28T01:36:37.350Z,84.89
2023-06-28T01:37:37.436Z,80.80
2023-06-28T01:38:37.399Z,76.26
2023-06-28T01:39:37.435Z,75.35
2023-06-28T01:40:37.620Z,72.78
2023-06-28T01:41:37.523Z,70.48
2023-06-28T01:42:37.548Z,70.25
2023-06-28T01:43:37.574Z,67.15
2023-06-28T01:44:37.642Z,64.79
2023-06-28T01:45:37.672Z,70.36
2023-06-28T01:46:37.690Z,67.90
2023-06-28T01:47:37.771Z,67.78
2023-06-28T01:48:38.805Z,75.19
2023-06-28T01:49:37.815Z,72.64
2023-06-28T01:50:37.831Z,67.25
2023-06-28T01:51:37.916Z,70.49
2023-06-28T01:52:37.918Z,67.58
2023-06-28T01:53:37.966Z,73.62
2023-06-28T01:54:38.029Z,76.48
2023-06-28T01:55:38.025Z,76.30
2023-06-28T01:56:37.999Z,74.61
2023-06-28T01:57:38.096Z,79.84
2023-06-28T01:58:38.196Z,84.26
2023-06-28T01:59:38.162Z,79.48
2023-06-28T02:00:38.233Z,85.04
2023-06-28T02:01:38.319Z,85.89
2023-06-28T02:02:38.290Z,83.75
2023-06-28T02:03:38.394Z,90.93
2023-06-28T02:04:38.359Z,90.05
2023-06-28T02:05:38.426Z,93.65
2023-06-28T02:06:38.479Z,88.42
2023-06-28T02:07:38.577Z,84.21
2023-06-28T02:08:38.533Z,86.59
2023-06-28T02:09:38.611Z,87.21
2023-06-28T02:10:38.632Z,85.57
2023-06-28T02:11:38.636Z,84.77
2023-06-28T02:12:38.718Z,92.63
2023-06-28T02:13:38.744Z,86.15
2023-06-28T02:14:38.800Z,86.76
2023-06-28T02:15:38.857Z,85.74
2023-06-28T02:16:38.905Z,82.88
2023-06-28T02:17:38.993Z,83.36
2023-06-28T02:18:39.101Z,78.57
2023-06-28T02:19:38.988Z,85.10
2023-06-28T02:20:39.070Z,84.47
2023-06-28T02:21:39.093Z,78.94
2023-06-28T02:22:39.177Z,86.16
2023-06-28T02:23:39.174Z,83.03
2023-06-28T02:24:39.233Z,74.86
2023-06-28T02:25:39.296Z,70.84
2023-06-28T02:26:39.388Z,72.11
2023-06-28T02:27:39.406Z,73.22
2023-06-28T02:28:39.430Z,62.32
2023-06-28T02:29:39.443Z,68.28
2023-06-28T02:30:39.885Z,76.12
2023-06-28T02:31:39.939Z,64.25
2023-06-28T02:32:39.614Z,63.29
2023-06-28T02:33:39.645Z,68.20
2023-06-28T02:34:39.687Z,69.95
2023-06-28T02:35:39.729Z,68.55
2023-06-28T02:36:39.782Z,66.39
2023-06-28T02:37:39.912Z,69.69
2023-06-28T02:38:39.892Z,79.64
2023-06-28T02:39:39.893Z,73.87
2023-06-28T02:40:40.428Z,69.34
2023-06-28T02:41:39.983Z,62.78
2023-06-28T02:42:40.049Z,65.60
2023-06-28T02:43:40.060Z,64.39
2023-06-28T02:44:40.128Z,59.97
2023-06-28T02:45:40.162Z,57.43
2023-06-28T02:46:40.239Z,56.30
2023-06-28T02:47:40.278Z,60.78
2023-06-28T02:48:40.396Z,66.96
2023-06-28T02:49:40.332Z,64.34
2023-06-28T02:50:40.491Z,68.61
2023-06-28T02:51:41.295Z,70.36
2023-06-28T02:52:40.461Z,74.70
2023-06-28T02:53:40.525Z,80.49
2023-06-28T02:54:40.576Z,72.89
2023-06-28T02:55:40.611Z,72.85
2023-06-28T02:56:40.619Z,69.80
2023-06-28T02:57:40.701Z,70.93
2023-06-28T02:58:40.762Z,73.45
2023-06-28T02:59:40.776Z,62.30
2023-06-28T03:00:40.904Z,67.00
2023-06-28T03:01:40.871Z,56.21
2023-06-28T03:02:40.985Z,48.03
2023-06-28T03:03:41.015Z,37.27
2023-06-28T03:04:41.125Z,33.76
2023-06-28T03:05:41.360Z,30.34
2023-06-28T03:06:41.077Z,28.71
2023-06-28T03:07:41.136Z,25.24
2023-06-28T03:08:41.156Z,31.08
2023-06-28T03:09:41.178Z,29.80
2023-06-28T03:10:41.505Z,25.04
2023-06-28T03:11:41.260Z,25.00
2023-06-28T03:12:41.286Z,25.00
2023-06-28T03:13:41.302Z,36.35
2023-06-28T03:14:41.347Z,41.76
2023-06-28T03:15:41.390Z,31.24
2023-06-28T03:16:41.407Z,37.72
2023-06-28T03:17:41.496Z,44.16
2023-06-28T03:18:41.534Z,40.91
2023-06-28T03:19:41.624Z,44.76
2023-06-28T03:20:41.883Z,37.63
2023-06-28T03:21:41.602Z,36.84
2023-06-28T03:22:41.726Z,31.80
2023-06-28T03:23:41.700Z,38.45
2023-06-28T03:24:41.806Z,42.76
2023-06-28T03:25:41.831Z,43.64
2023-06-28T03:26:41.909Z,46.77
2023-06-28T03:27:41.865Z,45.57
2023-06-28T03:28:41.888Z,47.95
2023-06-28T03:29:41.957Z,41.36
2023-06-28T03:30:42.156Z,47.34
2023-06-28T03:31:42.039Z,47.20
2023-06-28T03:32:42.159Z,48.79
2023-06-28T03:33:42.088Z,46.65
2023-06-28T03:34:42.098Z,43.51
2023-06-28T03:35:42.170Z,45.54
2023-06-28T03:36:54.469Z,47.76
2023-06-28T03:37:43.184Z,48.33
2023-06-28T03:38:42.174Z,49.82
2023-06-28T03:39:42.143Z,51.84
2023-06-28T03:40:42.333Z,55.41
2023-06-28T03:41:42.132Z,62.14
2023-06-28T03:42:42.147Z,60.54
2023-06-28T03:43:42.109Z,55.99
2023-06-28T03:44:42.148Z,62.76
2023-06-28T03:45:42.103Z,69.44
2023-06-28T03:46:42.276Z,64.81
2023-06-28T03:47:42.194Z,63.81
2023-06-28T03:48:42.109Z,61.08
2023-06-28T03:49:42.122Z,66.17
2023-06-28T03:50:42.382Z,69.31
2023-06-28T03:51:42.224Z,72.87
2023-06-28T03:52:42.234Z,70.10
2023-06-28T03:53:42.298Z,68.78
2023-06-28T03:54:42.335Z,68.34
2023-06-28T03:55:42.842Z,69.68
2023-06-28T03:56:42.400Z,71.65
2023-06-28T03:57:42.473Z,72.87
2023-06-28T03:58:42.549Z,70.51
2023-06-28T03:59:42.518Z,72.00
2023-06-28T04:00:42.770Z,72.11
2023-06-28T04:01:42.701Z,78.36
2023-06-28T04:02:42.835Z,79.39
2023-06-28T04:03:42.789Z,78.28
2023-06-28T04:04:42.798Z,80.28
2023-06-28T04:05:42.768Z,76.54
2023-06-28T04:06:42.838Z,75.83
2023-06-28T04:07:42.930Z,75.23
2023-06-28T04:08:44.871Z,76.46
2023-06-28T04:09:42.936Z,74.09
2023-06-28T04:10:43.209Z,75.48
2023-06-28T04:11:43.024Z,83.83
2023-06-28T04:12:43.056Z,82.25
2023-06-28T04:13:43.087Z,82.18
2023-06-28T04:14:43.146Z,77.24
2023-06-28T04:15:43.213Z,76.37
2023-06-28T04:16:43.257Z,82.96
2023-06-28T04:17:43.387Z,94.10
2023-06-28T04:18:43.406Z,85.84
2023-06-28T04:19:43.426Z,87.56
2023-06-28T04:20:43.905Z,86.61
2023-06-28T04:21:43.482Z,88.87
2023-06-28T04:22:43.534Z,91.86
2023-06-28T04:23:43.607Z,91.07
2023-06-28T04:24:43.658Z,94.82
2023-06-28T04:25:43.680Z,98.78
2023-06-28T04:26:44.326Z,93.56
2023-06-28T04:27:43.789Z,87.24
2023-06-28T04:28:43.881Z,87.84
2023-06-28T04:29:44.009Z,88.33
2023-06-28T04:30:44.081Z,95.17
2023-06-28T04:31:44.246Z,94.72
2023-06-28T04:32:44.162Z,96.09
2023-06-28T04:33:44.085Z,97.33
2023-06-28T04:34:44.086Z,99.44
2023-06-28T04:35:44.165Z,95.49
2023-06-28T04:36:44.202Z,101.15
2023-06-28T04:37:44.249Z,96.30
2023-06-28T04:38:44.309Z,95.46
2023-06-28T04:39:44.339Z,95.61
2023-06-28T04:40:44.674Z,98.59
2023-06-28T04:41:44.428Z,104.39
2023-06-28T04:42:44.551Z,102.64
2023-06-28T04:43:44.617Z,101.25
2023-06-28T04:44:44.609Z,105.58
2023-06-28T04:45:44.690Z,108.63
2023-06-28T04:46:44.686Z,105.15
2023-06-28T04:47:44.819Z,102.94
2023-06-28T04:48:44.787Z,104.75
2023-06-28T04:49:44.823Z,103.24
2023-06-28T04:50:44.954Z,107.37
2023-06-28T04:51:44.951Z,106.11
2023-06-28T04:52:44.990Z,106.61
2023-06-28T04:53:45.037Z,108.30
2023-06-28T04:54:45.097Z,109.89
2023-06-28T04:55:45.111Z,113.32
2023-06-28T04:56:45.222Z,115.48
2023-06-28T04:57:45.229Z,108.81
2023-06-28T04:58:45.281Z,105.90
2023-06-28T04:59:45.400Z,108.77
2023-06-28T05:00:45.506Z,118.70
2023-06-28T05:01:45.572Z,122.90
2023-06-28T05:02:45.595Z,126.95
2023-06-28T05:03:45.564Z,125.68
2023-06-28T05:04:45.643Z,125.75
2023-06-28T05:05:45.611Z,126.42
2023-06-28T05:06:45.679Z,126.44
2023-06-28T05:07:45.696Z,129.46
2023-06-28T05:08:45.766Z,127.23
2023-06-28T05:09:45.825Z,134.08
2023-06-28T05:10:45.854Z,133.34
2023-06-28T05:11:45.893Z,133.92
2023-06-28T05:12:45.997Z,134.49
2023-06-28T05:13:46.001Z,136.75
2023-06-28T05:14:46.181Z,136.34
2023-06-28T05:15:46.397Z,134.37
2023-06-28T05:16:46.149Z,135.44
2023-06-28T05:17:46.242Z,138.35
2023-06-28T05:18:46.202Z,141.79
2023-06-28T05:19:46.265Z,146.85
2023-06-28T05:20:46.293Z,149.30
2023-06-28T05:21:46.358Z,144.88
2023-06-28T05:22:46.394Z,145.28
2023-06-28T05:23:46.455Z,146.73
2023-06-28T05:24:46.574Z,149.47
2023-06-28T05:25:46.602Z,145.87
2023-06-28T05:26:46.706Z,147.46
2023-06-28T05:27:46.684Z,150.85
2023-06-28T05:28:46.750Z,152.77
2023-06-28T05:29:46.772Z,157.58
2023-06-28T05:30:47.671Z,155.86
2023-06-28T05:32:31.485Z,25.00
2023-06-28T05:33:31.374Z,25.00
2023-06-28T05:34:31.360Z,25.00
2023-06-28T05:35:31.383Z,25.00
2023-06-28T05:36:31.505Z,25.00
2023-06-28T05:37:31.363Z,25.61
2023-06-28T05:38:31.323Z,36.08
2023-06-28T05:39:31.365Z,40.09
2023-06-28T05:40:31.327Z,39.29
2023-06-28T05:41:31.490Z,46.95
2023-06-28T05:42:31.301Z,53.84
2023-06-28T05:43:31.352Z,56.99
2023-06-28T05:44:31.282Z,67.04
2023-06-28T05:45:31.295Z,72.27
2023-06-28T05:46:31.270Z,81.57
2023-06-28T05:47:31.310Z,82.31
2023-06-28T05:48:31.360Z,76.42
2023-06-28T05:49:31.328Z,73.11
2023-06-28T05:50:31.282Z,86.02
2023-06-28T05:51:31.992Z,82.36
2023-06-28T05:52:31.243Z,70.65
2023-06-28T05:53:31.256Z,78.29
2023-06-28T05:54:31.221Z,77.53
2023-06-28T05:55:31.245Z,74.44
2023-06-28T05:56:31.280Z,65.53
2023-06-28T05:57:31.364Z,65.94
2023-06-28T05:58:31.446Z,67.19
2023-06-28T05:59:31.466Z,65.62
2023-06-28T06:00:31.433Z,69.31
2023-06-28T06:01:31.529Z,66.22
2023-06-28T06:02:31.573Z,65.09
2023-06-28T06:03:32.769Z,69.30
2023-06-28T06:04:31.606Z,60.89
2023-06-28T06:05:31.834Z,74.29
2023-06-28T06:06:31.998Z,70.49
2023-06-28T06:07:31.935Z,74.84
2023-06-28T06:08:31.817Z,74.32
2023-06-28T06:09:31.928Z,72.10
2023-06-28T06:10:31.937Z,65.31
2023-06-28T06:11:32.014Z,65.89
2023-06-28T06:12:32.027Z,64.94
2023-06-28T06:13:32.116Z,64.82
2023-06-28T06:14:32.158Z,64.01
2023-06-28T06:15:32.194Z,52.69
2023-06-28T06:16:32.289Z,40.27
2023-06-28T06:17:32.394Z,33.29
2023-06-28T06:18:32.486Z,30.94
2023-06-28T06:19:32.429Z,34.15
2023-06-28T06:20:32.408Z,38.30
2023-06-28T06:21:32.499Z,36.34
2023-06-28T06:22:32.495Z,37.84
2023-06-28T06:23:32.515Z,37.48
2023-06-28T06:24:32.620Z,43.85
2023-06-28T06:25:32.643Z,40.41
2023-06-28T06:26:34.735Z,47.33
2023-06-28T06:27:32.755Z,38.65
2023-06-28T06:28:32.798Z,49.06
2023-06-28T06:29:32.938Z,46.27
2023-06-28T06:30:32.940Z,41.41
2023-06-28T06:31:33.164Z,32.06
2023-06-28T06:32:33.500Z,39.24
2023-06-28T06:33:33.097Z,35.01
2023-06-28T06:34:33.113Z,38.40
2023-06-28T06:35:33.257Z,35.18
2023-06-28T06:36:33.596Z,38.94
2023-06-28T06:37:33.994Z,40.89
2023-06-28T06:38:33.386Z,32.85
2023-06-28T06:39:33.429Z,43.77
2023-06-28T06:40:33.438Z,36.84
2023-06-28T06:41:34.009Z,34.71
2023-06-28T06:42:33.781Z,37.30
2023-06-28T06:43:33.661Z,36.22
2023-06-28T06:44:33.791Z,44.24
2023-06-28T06:45:33.789Z,43.79
2023-06-28T06:46:33.825Z,43.51
2023-06-28T06:47:33.979Z,33.02
2023-06-28T06:48:33.854Z,35.49
2023-06-28T06:49:34.034Z,34.51
2023-06-28T06:50:34.007Z,28.07
2023-06-28T06:51:33.958Z,25.86
2023-06-28T06:52:35.057Z,31.71
2023-06-28T06:53:35.141Z,30.43
2023-06-28T06:54:34.708Z,32.27
2023-06-28T06:55:34.180Z,26.66
2023-06-28T06:56:34.316Z,25.95
2023-06-28T06:57:35.058Z,31.25
2023-06-28T06:58:34.331Z,25.31
2023-06-28T06:59:34.375Z,29.91
2023-06-28T07:00:34.525Z,36.08
2023-06-28T07:01:34.521Z,30.15
2023-06-28T07:02:34.604Z,30.47
2023-06-28T07:03:34.554Z,32.97
2023-06-28T07:04:34.661Z,28.86
2023-06-28T07:05:34.649Z,30.98
2023-06-28T07:06:34.706Z,28.68
2023-06-28T07:07:34.893Z,27.26
2023-06-28T07:08:34.776Z,32.28
2023-06-28T07:09:35.120Z,32.79
2023-06-28T07:10:35.638Z,25.51
2023-06-28T07:11:35.593Z,28.71
2023-06-28T07:12:34.902Z,27.65
2023-06-28T07:13:34.926Z,26.51
2023-06-28T07:14:35.050Z,31.54
2023-06-28T07:15:35.145Z,33.31
2023-06-28T07:16:35.006Z,28.51
2023-06-28T07:17:35.130Z,28.55
2023-06-28T07:18:36.133Z,26.88
2023-06-28T07:19:35.083Z,27.39
2023-06-28T07:20:35.154Z,29.82
2023-06-28T07:21:35.179Z,26.39
2023-06-28T07:22:35.299Z,27.51
2023-06-28T07:23:35.283Z,26.21
2023-06-28T07:24:35.572Z,25.55
2023-06-28T07:25:35.291Z,30.17
2023-06-28T07:26:35.384Z,39.44
2023-06-28T07:27:35.396Z,39.80
2023-06-28T07:28:35.471Z,35.14
2023-06-28T07:29:35.427Z,30.49
2023-06-28T07:30:35.471Z,27.82
2023-06-28T07:31:35.617Z,28.64
2023-06-28T07:32:35.645Z,29.42
2023-06-28T07:33:35.661Z,27.78
2023-06-28T07:34:35.688Z,26.87
2023-06-28T07:35:35.742Z,26.50
2023-06-28T07:36:36.521Z,27.32
2023-06-28T07:37:35.833Z,28.37
2023-06-28T07:38:35.812Z,28.94
2023-06-28T07:39:35.858Z,39.47
2023-06-28T07:40:35.975Z,39.59
2023-06-28T07:41:36.030Z,33.65
2023-06-28T07:42:35.999Z,46.31
2023-06-28T07:43:35.988Z,51.08
2023-06-28T07:44:36.150Z,44.24
2023-06-28T07:45:36.298Z,42.41
2023-06-28T07:46:36.194Z,45.77
2023-06-28T07:47:36.131Z,47.75
2023-06-28T07:48:36.184Z,41.21
2023-06-28T07:49:36.185Z,40.05
2023-06-28T07:50:36.286Z,41.07
2023-06-28T07:51:36.596Z,38.24
2023-06-28T07:52:36.275Z,41.83
2023-06-28T07:53:36.358Z,42.72
2023-06-28T07:54:36.350Z,35.37
2023-06-28T07:55:37.304Z,31.13
2023-06-28T07:56:36.668Z,29.91
2023-06-28T07:57:36.462Z,36.69
2023-06-28T07:58:36.480Z,34.28
2023-06-28T07:59:37.167Z,36.29
2023-06-28T08:00:36.573Z,33.04
2023-06-28T08:01:36.797Z,25.00
2023-06-28T08:02:36.718Z,27.42
2023-06-28T08:03:36.831Z,30.90
2023-06-28T08:04:39.640Z,30.95
2023-06-28T08:05:36.754Z,25.00
2023-06-28T08:06:36.776Z,26.63
2023-06-28T08:07:36.783Z,25.00
2023-06-28T08:08:36.725Z,33.43
2023-06-28T08:09:36.792Z,25.90
2023-06-28T08:10:36.804Z,25.26
2023-06-28T08:11:36.778Z,33.61
2023-06-28T08:12:36.655Z,39.96
2023-06-28T08:13:36.712Z,42.32
2023-06-28T08:14:36.694Z,43.59
2023-06-28T08:15:36.718Z,45.44
2023-06-28T08:16:36.658Z,39.58
2023-06-28T08:17:36.702Z,46.67
2023-06-28T08:18:37.703Z,47.66
2023-06-28T08:19:36.698Z,57.02
2023-06-28T08:20:36.708Z,60.15
2023-06-28T08:21:36.600Z,53.32
2023-06-28T08:22:36.905Z,61.35
2023-06-28T08:23:36.576Z,60.09
2023-06-28T08:24:37.600Z,63.92
2023-06-28T08:25:36.699Z,52.62
2023-06-28T08:26:36.579Z,43.57
2023-06-28T08:27:36.606Z,39.82
2023-06-28T08:28:46.719Z,30.27
2023-06-28T08:29:37.628Z,22.18
2023-06-28T08:30:36.540Z,12.75
2023-06-28T08:31:36.698Z,5.72
2023-06-28T08:32:36.596Z,0.00
2023-06-28T08:33:36.536Z,0.00
2023-06-28T08:34:36.545Z,21.72
2023-06-28T08:35:36.555Z,25.68
2023-06-28T08:36:36.580Z,25.83
2023-06-28T08:37:36.529Z,25.62
2023-06-28T08:38:36.493Z,25.43
2023-06-28T08:39:36.530Z,35.66
2023-06-28T08:40:36.542Z,37.52
2023-06-28T08:41:36.563Z,32.66
2023-06-28T08:42:36.593Z,31.35
2023-06-28T08:43:36.540Z,28.12
2023-06-28T08:44:36.628Z,31.97
2023-06-28T08:45:36.657Z,34.13
2023-06-28T08:46:36.713Z,36.44
2023-06-28T08:47:36.775Z,35.93
2023-06-28T08:48:36.805Z,37.32
2023-06-28T08:49:36.778Z,42.47
2023-06-28T08:50:36.870Z,43.97
2023-06-28T08:51:37.675Z,38.70
2023-06-28T08:52:36.910Z,40.98
2023-06-28T08:53:36.898Z,40.84
2023-06-28T08:54:36.970Z,40.50
2023-06-28T08:55:37.076Z,42.85
2023-06-28T08:56:43.746Z,39.46
2023-06-28T08:57:38.025Z,39.68
2023-06-28T08:58:37.044Z,39.57
2023-06-28T08:59:37.093Z,32.08
2023-06-28T09:00:36.989Z,26.53
2023-06-28T09:01:37.092Z,28.02
2023-06-28T09:02:37.197Z,25.65
2023-06-28T09:03:37.129Z,25.09
2023-06-28T09:04:37.002Z,24.34
2023-06-28T09:05:37.013Z,25.99
2023-06-28T09:06:37.574Z,27.10
2023-06-28T09:07:38.686Z,30.02
2023-06-28T09:08:37.118Z,36.66
2023-06-28T09:09:37.081Z,38.21
2023-06-28T09:10:37.145Z,39.27
2023-06-28T09:11:37.196Z,34.35
2023-06-28T09:12:37.135Z,34.44
2023-06-28T09:13:37.119Z,32.36
2023-06-28T09:14:37.136Z,33.16
2023-06-28T09:15:37.111Z,18.96
2023-06-28T09:16:38.087Z,24.68
2023-06-28T09:17:37.159Z,25.86
2023-06-28T09:18:37.124Z,25.00
2023-06-28T09:19:37.117Z,30.23
2023-06-28T09:20:37.136Z,27.99
2023-06-28T09:21:37.080Z,23.79
2023-06-28T09:22:37.089Z,33.50
2023-06-28T09:23:37.165Z,26.52
2023-06-28T09:24:37.181Z,34.53
2023-06-28T09:25:37.229Z,38.72
2023-06-28T09:26:37.651Z,25.00
2023-06-28T09:27:37.271Z,34.70
2023-06-28T09:28:38.643Z,50.33
2023-06-28T09:29:37.362Z,73.76
2023-06-28T09:30:37.399Z,100.38
2023-06-28T09:31:38.150Z,128.93
2023-06-28T09:32:37.603Z,153.07
2023-06-28T09:33:37.550Z,157.11
2023-06-28T09:34:37.519Z,147.66
2023-06-28T09:35:37.564Z,161.48
2023-06-28T09:36:39.171Z,179.22
2023-06-28T09:37:37.679Z,179.84
2023-06-28T09:38:37.675Z,177.17
2023-06-28T09:39:38.672Z,169.86
2023-06-28T09:40:37.909Z,164.00
2023-06-28T09:41:38.117Z,154.27
2023-06-28T09:42:37.814Z,145.14
2023-06-28T09:43:37.791Z,132.77
2023-06-28T09:44:37.805Z,129.38
2023-06-28T09:45:38.741Z,122.22
2023-06-28T09:46:38.186Z,120.57
2023-06-28T09:47:37.975Z,110.66
2023-06-28T09:48:37.978Z,104.47
2023-06-28T09:49:40.640Z,93.48
2023-06-28T09:50:38.013Z,88.45
2023-06-28T09:51:38.126Z,76.39
2023-06-28T09:52:37.959Z,75.92
2023-06-28T09:53:37.982Z,70.86
2023-06-28T09:54:37.953Z,77.12
2023-06-28T09:55:38.010Z,56.65
2023-06-28T09:56:37.960Z,54.13
2023-06-28T09:57:37.942Z,47.08
2023-06-28T09:58:37.911Z,37.42
2023-06-28T09:59:37.969Z,40.60
2023-06-28T10:00:37.898Z,26.36
2023-06-28T10:01:37.942Z,32.34
2023-06-28T10:02:38.012Z,25.86
2023-06-28T10:03:38.758Z,25.11
2023-06-28T10:04:38.042Z,29.76
2023-06-28T10:05:37.864Z,25.00
2023-06-28T10:06:38.122Z,27.91
2023-06-28T10:07:37.908Z,39.89
2023-06-28T10:08:37.836Z,36.18
2023-06-28T10:09:37.939Z,26.77
2023-06-28T10:10:37.879Z,50.50
2023-06-28T10:11:38.166Z,43.08
2023-06-28T10:12:37.814Z,41.28
2023-06-28T10:13:37.835Z,34.61
2023-06-28T10:14:37.860Z,33.20
2023-06-28T10:15:37.813Z,26.51
2023-06-28T10:16:38.141Z,39.31
2023-06-28T10:17:37.910Z,28.15
2023-06-28T10:18:37.843Z,39.45
2023-06-28T10:19:38.757Z,43.67
2023-06-28T10:20:37.908Z,29.90
2023-06-28T10:21:38.693Z,27.53
2023-06-28T10:22:37.784Z,28.41
2023-06-28T10:23:37.868Z,24.77
2023-06-28T10:24:38.601Z,26.53
2023-06-28T10:25:37.748Z,28.24
2023-06-28T10:26:38.116Z,25.27
2023-06-28T10:27:37.781Z,25.25
2023-06-28T10:28:37.739Z,33.36
2023-06-28T10:29:37.720Z,32.27
2023-06-28T10:30:38.601Z,31.99
2023-06-28T10:31:37.805Z,30.91
2023-06-28T10:32:37.734Z,40.01
2023-06-28T10:33:38.131Z,45.00
2023-06-28T10:34:37.708Z,33.81
2023-06-28T10:35:37.679Z,30.38
2023-06-28T10:36:38.153Z,25.00
2023-06-28T10:37:38.629Z,26.56
2023-06-28T10:38:38.605Z,25.00
2023-06-28T10:39:37.625Z,25.00
2023-06-28T10:40:37.619Z,35.54
2023-06-28T10:41:37.625Z,39.52
2023-06-28T10:42:37.704Z,43.56
2023-06-28T10:43:37.599Z,25.96
2023-06-28T10:44:37.597Z,32.50
2023-06-28T10:45:37.652Z,32.63
2023-06-28T10:46:38.248Z,26.26
2023-06-28T10:47:37.674Z,30.55
2023-06-28T10:48:37.615Z,31.21
2023-06-28T10:49:37.700Z,29.83
2023-06-28T10:50:37.695Z,43.83
2023-06-28T10:51:37.722Z,31.86
2023-06-28T10:52:37.760Z,29.01
2023-06-28T10:53:37.866Z,31.18
2023-06-28T10:54:37.769Z,33.76
2023-06-28T10:55:37.845Z,32.50
2023-06-28T10:56:38.107Z,28.41
2023-06-28T10:57:37.893Z,25.67
2023-06-28T10:58:37.959Z,34.11
2023-06-28T10:59:37.935Z,35.49
2023-06-28T11:00:38.040Z,38.76
2023-06-28T11:01:38.092Z,50.78
2023-06-28T11:02:38.035Z,58.43
2023-06-28T11:03:38.040Z,37.34
2023-06-28T11:04:38.053Z,39.61
2023-06-28T11:05:38.134Z,50.49
2023-06-28T11:06:38.136Z,52.48
2023-06-28T11:07:38.234Z,52.57
2023-06-28T11:08:38.132Z,42.56
2023-06-28T11:09:38.169Z,29.49
2023-06-28T11:10:38.169Z,39.68
2023-06-28T11:11:38.287Z,29.10
2023-06-28T11:12:40.474Z,31.43
2023-06-28T11:13:38.278Z,31.12
2023-06-28T11:14:38.202Z,29.86
2023-06-28T11:15:38.220Z,33.39
2023-06-28T11:16:38.629Z,39.80
2023-06-28T11:17:38.220Z,43.27
2023-06-28T11:18:38.213Z,49.70
2023-06-28T11:19:38.176Z,41.40
2023-06-28T11:20:38.213Z,54.84
2023-06-28T11:21:38.182Z,49.31
2023-06-28T11:22:38.189Z,51.20
2023-06-28T11:23:38.154Z,38.83
2023-06-28T11:24:38.166Z,50.64
2023-06-28T11:25:38.129Z,43.04
2023-06-28T11:26:38.159Z,49.90
2023-06-28T11:27:38.116Z,46.20
2023-06-28T11:28:38.138Z,39.66
2023-06-28T11:29:38.126Z,51.15
2023-06-28T11:30:38.118Z,54.54
2023-06-28T11:31:38.099Z,57.17
2023-06-28T11:32:38.149Z,55.84
2023-06-28T11:33:38.076Z,45.24
2023-06-28T11:34:38.100Z,60.24
2023-06-28T11:35:38.070Z,59.80
2023-06-28T11:36:38.045Z,53.62
2023-06-28T11:37:38.077Z,42.30
2023-06-28T11:38:38.043Z,30.73
2023-06-28T11:39:38.060Z,33.91
2023-06-28T11:40:38.029Z,57.38
2023-06-28T11:41:38.048Z,43.42
2023-06-28T11:42:38.012Z,35.89
2023-06-28T11:43:38.012Z,33.94
2023-06-28T11:44:38.018Z,43.25
2023-06-28T11:45:38.032Z,38.69
2023-06-28T11:46:38.052Z,46.05
2023-06-28T11:47:37.994Z,46.43
2023-06-28T11:48:37.983Z,52.67
2023-06-28T11:49:37.980Z,25.71
2023-06-28T11:50:37.991Z,47.37
2023-06-28T11:51:37.968Z,34.64
2023-06-28T11:52:37.997Z,40.80
2023-06-28T11:53:37.944Z,25.00
2023-06-28T11:54:37.937Z,29.61
2023-06-28T11:55:37.914Z,29.83
2023-06-28T11:56:37.947Z,28.70
2023-06-28T11:57:37.914Z,32.93
2023-06-28T11:58:37.936Z,34.17
2023-06-28T11:59:37.901Z,44.49
2023-06-28T12:00:37.944Z,41.28
2023-06-28T12:01:37.898Z,36.31
2023-06-28T12:02:37.931Z,43.28
2023-06-28T12:03:37.974Z,45.38
2023-06-28T12:04:38.025Z,43.77
2023-06-28T12:05:37.879Z,43.14
2023-06-28T12:06:37.887Z,60.00
2023-06-28T12:07:37.904Z,51.90
2023-06-28T12:08:37.873Z,51.86
2023-06-28T12:09:37.844Z,39.29
2023-06-28T12:10:37.872Z,38.36
2023-06-28T12:11:37.876Z,46.13
2023-06-28T12:12:37.845Z,53.72
2023-06-28T12:13:37.800Z,52.64
2023-06-28T12:14:37.828Z,46.97
2023-06-28T12:15:37.801Z,49.84
2023-06-28T12:16:37.806Z,53.83
2023-06-28T12:17:38.214Z,48.91
2023-06-28T12:18:37.779Z,57.66
2023-06-28T12:19:37.750Z,51.60
2023-06-28T12:20:37.777Z,60.41
2023-06-28T12:21:37.878Z,58.30
2023-06-28T12:22:37.814Z,62.84
2023-06-28T12:23:37.820Z,50.75
2023-06-28T12:24:37.888Z,55.37
2023-06-28T12:25:37.865Z,71.02
2023-06-28T12:26:37.902Z,64.04
2023-06-28T12:27:37.929Z,50.00
2023-06-28T12:28:38.001Z,60.44
2023-06-28T12:29:37.984Z,47.59
2023-06-28T12:30:38.014Z,41.32
2023-06-28T12:31:38.079Z,57.30
2023-06-28T12:32:38.071Z,64.64
2023-06-28T12:33:38.061Z,56.11
2023-06-28T12:34:38.121Z,57.73
2023-06-28T12:35:38.112Z,60.30
2023-06-28T12:36:38.177Z,71.01
2023-06-28T12:37:38.196Z,68.63
2023-06-28T12:38:38.217Z,63.98
2023-06-28T12:39:38.197Z,67.40
2023-06-28T12:40:38.233Z,55.56
2023-06-28T12:41:38.283Z,54.55
2023-06-28T12:42:38.353Z,53.63
2023-06-28T12:43:38.861Z,52.77
2023-06-28T12:44:38.317Z,58.08
2023-06-28T12:45:38.360Z,60.05
2023-06-28T12:46:38.380Z,49.99
2023-06-28T12:47:38.417Z,46.51
2023-06-28T12:48:38.419Z,50.34
2023-06-28T12:49:38.442Z,50.43
2023-06-28T12:50:38.451Z,49.23
2023-06-28T12:51:38.456Z,51.27
2023-06-28T12:52:39.183Z,59.05